Time;durP1;ratioP1;P1;durP2;ratioP2;P2;SDS_P1;SDS_P2;PMS_P1;PMS_P2;Temp;Humidity;BMP_temperature;BMP_pressure;BME280_temperature;BME280_humidity;BME280_pressure;Samples;Min_cycle;Max_cycle;Signal;HPM_P1;HPM_P2
2021/01/13 00:02:00;;;;;;;;;;;;;;;;;;5114572;28;20383;-61
2021/01/13 00:04:26;;;;;;;;;;;;;;;;;;5114625;28;19968;-62
2021/01/13 00:06:52;;;;;;;;;;;;;;;;;;5114022;28;19935;-62
2021/01/13 00:09:18;;;;;;;;;;;;;;;;;;5114570;28;20352;-62
2021/01/13 00:11:44;;;;;;;;;;;;;;;;;;5114530;28;19908;-61
2021/01/13 00:14:10;;;;;;;;;;;;;;;;;;5114130;28;20002;-61
2021/01/13 00:16:36;;;;;;;;;;;;;;;;;;5114628;28;20335;-61
2021/01/13 00:19:02;;;;;;;;;;;;;;;;;;5114483;28;19915;-62
2021/01/13 00:21:28;;;;;;;;;;;;;;;;;;5113899;28;19939;-60
2021/01/13 00:23:54;;;;;;;;;;;;;;;;;;5114265;28;19960;-60
2021/01/13 00:26:21;;;;;;;;;;;;;;;;;;5114180;28;20003;-60
2021/01/13 00:28:47;;;;;;;;;;;;;;;;;;5113757;28;19915;-59
2021/01/13 00:31:13;;;;;;;;;;;;;;;;;;5114084;28;20355;-59
2021/01/13 00:33:39;;;;;;;;;;;;;;;;;;5113956;28;20370;-61
2021/01/13 00:36:05;;;;;;;;;;;;;;;;;;5113728;28;19939;-60
2021/01/13 00:38:31;;;;;;;;;;;;;;;;;;5114220;28;19914;-60
2021/01/13 00:40:57;;;;;;;;;;;;;;;;;;5113884;28;19915;-61
2021/01/13 00:43:23;;;;;;;;;;;;;;;;;;5095238;28;20272;-61
2021/01/13 00:45:49;;;;;;;;;;;;;;;;;;5095613;28;19908;-61
2021/01/13 00:48:15;;;;;;;;;;;;;;;;;;5095684;28;19923;-61
2021/01/13 00:50:41;;;;;;;;;;;;;;;;;;5113227;28;19920;-61
2021/01/13 00:53:07;;;;;;;;;;;;;;;;;;5113599;28;20322;-61
2021/01/13 00:55:33;;;;;;;;;;;;;;;;;;5095722;28;20264;-61
2021/01/13 00:57:59;;;;;;;;;;;;;;;;;;5113474;28;19914;-61
2021/01/13 01:00:25;;;;;;;;;;;;;;;;;;5113579;28;19931;-61
2021/01/13 01:02:51;;;;;;;;;;;;;;;;;;5113237;28;20231;-61
2021/01/13 01:05:17;;;;;;;;;;;;;;;;;;5113497;28;20440;-61
2021/01/13 01:07:43;;;;;;;;;;;;;;;;;;5113457;28;19922;-61
2021/01/13 01:10:09;;;;;;;;;;;;;;;;;;5113053;28;19907;-61
2021/01/13 01:12:35;;;;;;;;;;;;;;;;;;5113352;28;19907;-61
2021/01/13 01:15:01;;;;;;;;;;;;;;;;;;5113662;28;19938;-61
2021/01/13 01:17:27;;;;;;;;;;;;;;;;;;5113131;28;19947;-61
2021/01/13 01:19:53;;;;;;;;;;;;;;;;;;5113523;28;19964;-61
2021/01/13 01:22:19;;;;;;;;;;;;;;;;;;5113266;28;19908;-61
2021/01/13 01:24:45;;;;;;;;;;;;;;;;;;5112870;28;20287;-61
2021/01/13 01:27:11;;;;;;;;;;;;;;;;;;5113146;28;20019;-61
2021/01/13 01:29:37;;;;;;;;;;;;;;;;;;5113252;28;19915;-61
2021/01/13 01:32:03;;;;;;;;;;;;;;;;;;5112789;28;19911;-61
2021/01/13 01:34:29;;;;;;;;;;;;;;;;;;5094889;28;19947;-61
2021/01/13 01:36:55;;;;;;;;;;;;;;;;;;5113285;28;19949;-61
2021/01/13 01:39:21;;;;;;;;;;;;;;;;;;5112908;28;19918;-61
2021/01/13 01:41:47;;;;;;;;;;;;;;;;;;5113121;28;19908;-61
2021/01/13 01:44:13;;;;;;;;;;;;;;;;;;5094725;28;19956;-61
2021/01/13 01:46:39;;;;;;;;;;;;;;;;;;5094376;28;20261;-61
2021/01/13 01:49:05;;;;;;;;;;;;;;;;;;5112883;28;19919;-61
2021/01/13 01:51:31;;;;;;;;;;;;;;;;;;5094631;28;19998;-61
2021/01/13 01:53:57;;;;;;;;;;;;;;;;;;5112553;28;19960;-61
2021/01/13 01:56:23;;;;;;;;;;;;;;;;;;5113080;28;19912;-61
2021/01/13 01:58:49;;;;;;;;;;;;;;;;;;5094865;28;19912;-59
2021/01/13 02:01:15;;;;;;;;;;;;;;;;;;5112448;28;19914;-60
2021/01/13 02:03:42;;;;;;;;;;;;;;;;;;5112104;28;21295;-60
2021/01/13 02:06:09;;;;;;;;;;;;;;;;;;5112433;28;19908;-60
2021/01/13 02:08:34;;;;;;;;;;;;;;;;;;5116371;28;19915;-60
2021/01/13 02:11:00;;;;;;;;;;;;;;;;;;5098513;28;20002;-59
2021/01/13 02:13:26;;;;;;;;;;;;;;;;;;5098116;28;19912;-59
2021/01/13 02:15:52;;;;;;;;;;;;;;;;;;5116671;28;19908;-59
2021/01/13 02:18:18;;;;;;;;;;;;;;;;;;5116863;28;19914;-59
2021/01/13 02:20:44;;;;;;;;;;;;;;;;;;5098083;28;20294;-59
2021/01/13 02:23:10;;;;;;;;;;;;;;;;;;5116622;28;19942;-59
2021/01/13 02:25:36;;;;;;;;;;;;;;;;;;5116551;28;19908;-60
2021/01/13 02:28:02;;;;;;;;;;;;;;;;;;5116141;28;19916;-60
2021/01/13 02:30:28;;;;;;;;;;;;;;;;;;5116421;28;20291;-59
2021/01/13 02:32:54;;;;;;;;;;;;;;;;;;5116407;28;20006;-59
2021/01/13 02:35:20;;;;;;;;;;;;;;;;;;5115928;28;19908;-59
2021/01/13 02:37:46;;;;;;;;;;;;;;;;;;5098235;28;20388;-59
2021/01/13 02:40:12;;;;;;;;;;;;;;;;;;5116278;28;19908;-60
2021/01/13 02:42:38;;;;;;;;;;;;;;;;;;5097447;28;19912;-60
2021/01/13 02:45:04;;;;;;;;;;;;;;;;;;5097783;28;19911;-61
2021/01/13 02:47:30;;;;;;;;;;;;;;;;;;5116015;28;19912;-61
2021/01/13 02:49:56;;;;;;;;;;;;;;;;;;5115594;28;20272;-61
2021/01/13 02:52:24;;;;;;;;;;;;;;;;;;5116019;28;19908;-61
2021/01/13 02:54:50;;;;;;;;;;;;;;;;;;5115968;28;19907;-61
2021/01/13 02:57:17;;;;;;;;;;;;;;;;;;5115703;28;19915;-61
2021/01/13 02:59:43;;;;;;;;;;;;;;;;;;5116058;28;20337;-61
2021/01/13 03:02:10;;;;;;;;;;;;;;;;;;5115877;28;19908;-61
2021/01/13 03:04:36;;;;;;;;;;;;;;;;;;5115466;28;19908;-61
2021/01/13 03:07:02;;;;;;;;;;;;;;;;;;5115753;28;19923;-61
2021/01/13 03:09:28;;;;;;;;;;;;;;;;;;5115437;28;20413;-62
2021/01/13 03:11:54;;;;;;;;;;;;;;;;;;5097402;28;19908;-61
2021/01/13 03:14:20;;;;;;;;;;;;;;;;;;5115654;28;19912;-61
2021/01/13 03:16:46;;;;;;;;;;;;;;;;;;5115255;28;20344;-61
2021/01/13 03:19:12;;;;;;;;;;;;;;;;;;5096013;28;19988;-61
2021/01/13 03:21:37;;;;;;;;;;;;;;;;;;5097245;28;19934;-61
2021/01/13 03:24:03;;;;;;;;;;;;;;;;;;5115062;28;19916;-61
2021/01/13 03:26:29;;;;;;;;;;;;;;;;;;5115390;28;20372;-61
2021/01/13 03:28:55;;;;;;;;;;;;;;;;;;5115302;28;19923;-61
2021/01/13 03:31:21;;;;;;;;;;;;;;;;;;5115335;28;19907;-61
2021/01/13 03:33:47;;;;;;;;;;;;;;;;;;5115338;28;19915;-61
2021/01/13 03:36:13;;;;;;;;;;;;;;;;;;5096964;28;19912;-61
2021/01/13 03:38:39;;;;;;;;;;;;;;;;;;5115051;28;19915;-61
2021/01/13 03:41:05;;;;;;;;;;;;;;;;;;5115156;28;20312;-61
2021/01/13 03:43:31;;;;;;;;;;;;;;;;;;5115057;28;20153;-61
2021/01/13 03:45:57;;;;;;;;;;;;;;;;;;5114633;28;19907;-61
2021/01/13 03:48:23;;;;;;;;;;;;;;;;;;5114958;28;19927;-61
2021/01/13 03:50:49;;;;;;;;;;;;;;;;;;5114739;28;20418;-61
2021/01/13 03:53:15;;;;;;;;;;;;;;;;;;5114552;28;19908;-61
2021/01/13 03:55:41;;;;;;;;;;;;;;;;;;5114926;28;19915;-61
2021/01/13 03:58:07;;;;;;;;;;;;;;;;;;5114985;28;19908;-61
2021/01/13 04:00:33;;;;;;;;;;;;;;;;;;5114456;28;19911;-61
2021/01/13 04:02:59;;;;;;;;;;;;;;;;;;5114712;28;19908;-61
2021/01/13 04:05:25;;;;;;;;;;;;;;;;;;5096378;28;19954;-61
2021/01/13 04:07:51;;;;;;;;;;;;;;;;;;5114149;28;19962;-61
2021/01/13 04:10:17;;;;;;;;;;;;;;;;;;5114570;28;20279;-61
2021/01/13 04:12:43;;;;;;;;;;;;;;;;;;5114502;28;19937;-61
2021/01/13 04:15:09;;;;;;;;;;;;;;;;;;5114536;28;20311;-61
2021/01/13 04:17:35;;;;;;;;;;;;;;;;;;5114859;28;19908;-61
2021/01/13 04:20:01;;;;;;;;;;;;;;;;;;5114150;28;20320;-61
2021/01/13 04:22:27;;;;;;;;;;;;;;;;;;5096027;28;19908;-61
2021/01/13 04:24:53;;;;;;;;;;;;;;;;;;5114315;28;20425;-61
2021/01/13 04:27:19;;;;;;;;;;;;;;;;;;5113711;28;19926;-61
2021/01/13 04:29:45;;;;;;;;;;;;;;;;;;5113760;28;19916;-61
2021/01/13 04:32:11;;;;;;;;;;;;;;;;;;5114171;28;20387;-61
2021/01/13 04:34:37;;;;;;;;;;;;;;;;;;5095423;28;19911;-61
2021/01/13 04:37:03;;;;;;;;;;;;;;;;;;5114266;28;19911;-61
2021/01/13 04:39:29;;;;;;;;;;;;;;;;;;5095894;28;19913;-61
2021/01/13 04:41:55;;;;;;;;;;;;;;;;;;5113535;28;20016;-61
2021/01/13 04:44:21;;;;;;;;;;;;;;;;;;5114037;28;20292;-61
2021/01/13 04:46:47;;;;;;;;;;;;;;;;;;5114126;28;19912;-61
2021/01/13 04:49:13;;;;;;;;;;;;;;;;;;5113492;28;20406;-62
2021/01/13 04:51:39;;;;;;;;;;;;;;;;;;5113738;28;19960;-61
2021/01/13 04:54:05;;;;;;;;;;;;;;;;;;5113848;28;19908;-61
2021/01/13 04:56:31;;;;;;;;;;;;;;;;;;5113534;28;19907;-61
2021/01/13 04:58:57;;;;;;;;;;;;;;;;;;5113801;28;19908;-61
2021/01/13 05:01:23;;;;;;;;;;;;;;;;;;5095298;28;19911;-61
2021/01/13 05:03:49;;;;;;;;;;;;;;;;;;5113234;28;19915;-61
2021/01/13 05:06:15;;;;;;;;;;;;;;;;;;5113541;28;20333;-61
2021/01/13 05:08:41;;;;;;;;;;;;;;;;;;5113515;28;19915;-61
2021/01/13 05:11:07;;;;;;;;;;;;;;;;;;5113217;28;19930;-61
2021/01/13 05:13:33;;;;;;;;;;;;;;;;;;5113550;28;19912;-61
2021/01/13 05:15:59;;;;;;;;;;;;;;;;;;5113275;28;19947;-61
2021/01/13 05:18:25;;;;;;;;;;;;;;;;;;5095378;28;19986;-61
2021/01/13 05:20:51;;;;;;;;;;;;;;;;;;5095303;28;20356;-61
2021/01/13 05:23:17;;;;;;;;;;;;;;;;;;5094915;28;19964;-61
2021/01/13 05:25:43;;;;;;;;;;;;;;;;;;5113543;28;19958;-61
2021/01/13 05:28:09;;;;;;;;;;;;;;;;;;5094977;28;19915;-61
2021/01/13 05:30:35;;;;;;;;;;;;;;;;;;5094608;28;19907;-62
2021/01/13 05:33:01;;;;;;;;;;;;;;;;;;5095166;28;19908;-61
2021/01/13 05:35:27;;;;;;;;;;;;;;;;;;5095321;28;19935;-61
2021/01/13 05:37:53;;;;;;;;;;;;;;;;;;5112901;28;19911;-62
2021/01/13 05:40:19;;;;;;;;;;;;;;;;;;5113174;28;19908;-63
2021/01/13 05:42:45;;;;;;;;;;;;;;;;;;5115669;28;19912;-62
2021/01/13 05:45:11;;;;;;;;;;;;;;;;;;5117067;28;19915;-63
2021/01/13 05:47:37;;;;;;;;;;;;;;;;;;5117334;28;19916;-62
2021/01/13 05:50:03;;;;;;;;;;;;;;;;;;5116964;28;19924;-61
2021/01/13 05:52:28;;;;;;;;;;;;;;;;;;5116833;28;20356;-61
2021/01/13 05:54:54;;;;;;;;;;;;;;;;;;5116272;28;19907;-61
2021/01/13 05:57:20;;;;;;;;;;;;;;;;;;5117394;28;19954;-62
2021/01/13 05:59:46;;;;;;;;;;;;;;;;;;5098483;28;20264;-63
2021/01/13 06:02:12;;;;;;;;;;;;;;;;;;5117010;28;19937;-62
2021/01/13 06:04:38;;;;;;;;;;;;;;;;;;5116019;28;19954;-63
2021/01/13 06:07:05;;;;;;;;;;;;;;;;;;5114817;28;20275;-61
2021/01/13 06:09:31;;;;;;;;;;;;;;;;;;5116095;28;19976;-62
2021/01/13 06:11:56;;;;;;;;;;;;;;;;;;5116099;28;19907;-62
2021/01/13 06:14:22;;;;;;;;;;;;;;;;;;5114748;28;19908;-62
2021/01/13 06:16:48;;;;;;;;;;;;;;;;;;5115337;28;20396;-60
2021/01/13 06:19:14;;;;;;;;;;;;;;;;;;5094794;28;19915;-61
2021/01/13 06:21:40;;;;;;;;;;;;;;;;;;5114780;28;19914;-62
2021/01/13 06:24:06;;;;;;;;;;;;;;;;;;5114872;28;20509;-63
2021/01/13 06:26:32;;;;;;;;;;;;;;;;;;5096309;28;19907;-61
2021/01/13 06:28:58;;;;;;;;;;;;;;;;;;5116454;28;19916;-61
2021/01/13 06:31:24;;;;;;;;;;;;;;;;;;5098164;28;19915;-60
2021/01/13 06:33:50;;;;;;;;;;;;;;;;;;5097623;28;20386;-60
2021/01/13 06:36:16;;;;;;;;;;;;;;;;;;5116488;28;20416;-60
2021/01/13 06:38:42;;;;;;;;;;;;;;;;;;5098145;28;19911;-61
2021/01/13 06:41:08;;;;;;;;;;;;;;;;;;5115908;28;19968;-62
2021/01/13 06:43:34;;;;;;;;;;;;;;;;;;5098047;28;20339;-61
2021/01/13 06:46:00;;;;;;;;;;;;;;;;;;5116255;28;19908;-61
2021/01/13 06:48:26;;;;;;;;;;;;;;;;;;5115259;28;20099;-60
2021/01/13 06:50:52;;;;;;;;;;;;;;;;;;5116146;28;19915;-59
2021/01/13 06:53:18;;;;;;;;;;;;;;;;;;5110225;28;19919;-61
2021/01/13 06:55:44;;;;;;;;;;;;;;;;;;5087825;28;19916;-60
2021/01/13 06:58:10;;;;;;;;;;;;;;;;;;5094541;28;19908;-59
2021/01/13 07:00:36;;;;;;;;;;;;;;;;;;5112519;28;20579;-59
2021/01/13 07:03:02;;;;;;;;;;;;;;;;;;5114535;28;19908;-59
2021/01/13 07:05:28;;;;;;;;;;;;;;;;;;5114408;28;19908;-60
2021/01/13 07:07:54;;;;;;;;;;;;;;;;;;5115200;28;20395;-60
2021/01/13 07:10:20;;;;;;;;;;;;;;;;;;5114658;28;19918;-59
2021/01/13 07:12:46;;;;;;;;;;;;;;;;;;5096983;28;19915;-59
2021/01/13 07:15:12;;;;;;;;;;;;;;;;;;5113764;28;20064;-58
2021/01/13 07:17:38;;;;;;;;;;;;;;;;;;5114348;28;19908;-59
2021/01/13 07:20:04;;;;;;;;;;;;;;;;;;5127109;27;20284;-58
2021/01/13 07:22:30;;;;;;;;;;;;;;;;;;5129735;27;20313;-59
2021/01/13 07:24:56;;;;;;;;;;;;;;;;;;5108106;28;19912;-59
2021/01/13 07:27:22;;;;;;;;;;;;;;;;;;5093493;28;19923;-58
2021/01/13 07:29:48;;;;;;;;;;;;;;;;;;5102916;27;20280;-60
2021/01/13 07:32:14;;;;;;;;;;;;;;;;;;5128442;27;19908;-60
2021/01/13 07:34:40;;;;;;;;;;;;;;;;;;5116277;27;19915;-59
2021/01/13 07:37:06;;;;;;;;;;;;;;;;;;5134369;27;19950;-59
2021/01/13 07:39:32;;;;;;;;;;;;;;;;;;5133203;27;19908;-59
2021/01/13 07:41:58;;;;;;;;;;;;;;;;;;5116368;27;19914;-59
2021/01/13 07:44:24;;;;;;;;;;;;;;;;;;5133985;27;19923;-59
2021/01/13 07:46:50;;;;;;;;;;;;;;;;;;5115789;27;19960;-59
2021/01/13 07:49:16;;;;;;;;;;;;;;;;;;5130273;27;19923;-59
2021/01/13 07:51:42;;;;;;;;;;;;;;;;;;5114910;27;19911;-59
2021/01/13 07:54:08;;;;;;;;;;;;;;;;;;5125059;27;20261;-59
2021/01/13 07:56:34;;;;;;;;;;;;;;;;;;5113846;28;20026;-59
2021/01/13 07:59:00;;;;;;;;;;;;;;;;;;5112055;28;19908;-60
2021/01/13 08:01:26;;;;;;;;;;;;;;;;;;5110334;28;19907;-59
2021/01/13 08:03:52;;;;;;;;;;;;;;;;;;5111383;28;19967;-59
2021/01/13 08:06:18;;;;;;;;;;;;;;;;;;5110430;28;19908;-59
2021/01/13 08:08:44;;;;;;;;;;;;;;;;;;5094955;28;19920;-59
2021/01/13 08:11:10;;;;;;;;;;;;;;;;;;5095110;28;20379;-59
2021/01/13 08:13:38;;;;;;;;;;;;;;;;;;5112925;28;19908;-59
2021/01/13 08:16:04;;;;;;;;;;;;;;;;;;5113796;28;20464;-60
2021/01/13 08:18:30;;;;;;;;;;;;;;;;;;5114051;28;20360;-59
2021/01/13 08:21:00;;;;;;;;;;;;;;;;;;5112879;28;19937;-59
2021/01/13 08:23:29;;;;;;;;;;;;;;;;;;5128952;27;19908;-60
2021/01/13 08:25:55;;;;;;;;;;;;;;;;;;5133250;27;19915;-59
2021/01/13 08:28:21;;;;;;;;;;;;;;;;;;5133306;27;19916;-60
2021/01/13 08:30:47;;;;;;;;;;;;;;;;;;5134083;27;19930;-59
2021/01/13 08:33:13;;;;;;;;;;;;;;;;;;5123843;27;19960;-60
2021/01/13 08:35:39;;;;;;;;;;;;;;;;;;5094764;28;20276;-59
2021/01/13 08:38:05;;;;;;;;;;;;;;;;;;5112196;28;19908;-60
2021/01/13 08:40:31;;;;;;;;;;;;;;;;;;5112490;28;19971;-60
2021/01/13 08:42:57;;;;;;;;;;;;;;;;;;5113606;28;19908;-59
2021/01/13 08:45:23;;;;;;;;;;;;;;;;;;5113530;28;20279;-58
2021/01/13 08:47:49;;;;;;;;;;;;;;;;;;5112964;28;20002;-59
2021/01/13 08:50:16;;;;;;;;;;;;;;;;;;5091632;28;19920;-58
2021/01/13 08:52:42;;;;;;;;;;;;;;;;;;5092960;28;20033;-61
2021/01/13 08:55:08;;;;;;;;;;;;;;;;;;5092338;28;20015;-61
2021/01/13 08:57:34;;;;;;;;;;;;;;;;;;5092655;28;19915;-61
2021/01/13 09:00:00;;;;;;;;;;;;;;;;;;5091569;28;20364;-61
2021/01/13 09:02:26;;;;;;;;;;;;;;;;;;5091108;28;19908;-60
2021/01/13 09:04:52;;;;;;;;;;;;;;;;;;5092871;28;20361;-60
2021/01/13 09:07:18;;;;;;;;;;;;;;;;;;5092283;28;20353;-59
2021/01/13 09:09:44;;;;;;;;;;;;;;;;;;5092590;28;19916;-58
2021/01/13 09:12:10;;;;;;;;;;;;;;;;;;5092285;28;19956;-59
2021/01/13 09:14:36;;;;;;;;;;;;;;;;;;5091037;28;20399;-59
2021/01/13 09:17:06;;;;;;;;;;;;;;;;;;5088081;28;19908;-60
2021/01/13 09:19:32;;;;;;;;;;;;;;;;;;5088077;28;19932;-59
2021/01/13 09:21:58;;;;;;;;;;;;;;;;;;5093340;28;20044;-59
2021/01/13 09:24:24;;;;;;;;;;;;;;;;;;5104484;28;19920;-59
2021/01/13 09:26:50;;;;;;;;;;;;;;;;;;5095929;28;20288;-59
2021/01/13 09:29:16;;;;;;;;;;;;;;;;;;5092517;28;19926;-59
2021/01/13 09:31:42;;;;;;;;;;;;;;;;;;5096635;28;19933;-59
2021/01/13 09:34:08;;;;;;;;;;;;;;;;;;5111770;28;19954;-59
2021/01/13 09:36:34;;;;;;;;;;;;;;;;;;5112216;28;19907;-60
2021/01/13 09:39:00;;;;;;;;;;;;;;;;;;5110087;28;19915;-59
2021/01/13 09:41:26;;;;;;;;;;;;;;;;;;5112536;28;19908;-60
2021/01/13 09:43:52;;;;;;;;;;;;;;;;;;5111831;28;19915;-59
2021/01/13 09:46:18;;;;;;;;;;;;;;;;;;5111427;28;19908;-60
2021/01/13 09:48:44;;;;;;;;;;;;;;;;;;5106351;28;20267;-59
2021/01/13 09:51:10;;;;;;;;;;;;;;;;;;5122173;28;19976;-60
2021/01/13 09:53:38;;;;;;;;;;;;;;;;;;5132614;28;20345;-60
2021/01/13 09:56:04;;;;;;;;;;;;;;;;;;5100698;28;21225;-59
2021/01/13 09:58:30;;;;;;;;;;;;;;;;;;5111831;28;20352;-60
2021/01/13 10:00:56;;;;;;;;;;;;;;;;;;5117154;28;20002;-59
2021/01/13 10:03:22;;;;;;;;;;;;;;;;;;5133243;28;19943;-60
2021/01/13 10:05:48;;;;;;;;;;;;;;;;;;5131959;28;19954;-59
2021/01/13 10:08:14;;;;;;;;;;;;;;;;;;5120953;28;19916;-59
2021/01/13 10:10:40;;;;;;;;;;;;;;;;;;5094569;28;20360;-59
2021/01/13 10:13:06;;;;;;;;;;;;;;;;;;5111822;28;19950;-59
2021/01/13 10:15:32;;;;;;;;;;;;;;;;;;5112656;28;19916;-59
2021/01/13 10:17:58;;;;;;;;;;;;;;;;;;5115184;28;19933;-61
2021/01/13 10:20:25;;;;;;;;;;;;;;;;;;5119969;28;19918;-59
2021/01/13 10:22:51;;;;;;;;;;;;;;;;;;5114842;28;19911;-60
2021/01/13 10:25:17;;;;;;;;;;;;;;;;;;5131401;28;19936;-59
2021/01/13 10:27:42;;;;;;;;;;;;;;;;;;5132579;27;19994;-59
2021/01/13 10:30:09;;;;;;;;;;;;;;;;;;5136761;27;19915;-59
2021/01/13 10:32:34;;;;;;;;;;;;;;;;;;5136128;27;19907;-60
2021/01/13 10:35:00;;;;;;;;;;;;;;;;;;5129549;27;20446;-59
2021/01/13 10:37:26;;;;;;;;;;;;;;;;;;5114949;28;19919;-60
2021/01/13 10:39:52;;;;;;;;;;;;;;;;;;5114061;28;20006;-60
2021/01/13 10:42:18;;;;;;;;;;;;;;;;;;5115133;28;20283;-60
2021/01/13 10:44:44;;;;;;;;;;;;;;;;;;5115088;28;19911;-60
2021/01/13 10:47:11;;;;;;;;;;;;;;;;;;5115301;28;20280;-60
2021/01/13 10:49:37;;;;;;;;;;;;;;;;;;5115365;28;20376;-59
2021/01/13 10:52:03;;;;;;;;;;;;;;;;;;5115752;28;19919;-59
2021/01/13 10:54:29;;;;;;;;;;;;;;;;;;5097218;28;19908;-59
2021/01/13 10:56:55;;;;;;;;;;;;;;;;;;5115756;28;19995;-59
2021/01/13 10:59:22;;;;;;;;;;;;;;;;;;5129740;27;19915;-61
2021/01/13 11:01:48;;;;;;;;;;;;;;;;;;5134438;27;19967;-60
2021/01/13 11:04:13;;;;;;;;;;;;;;;;;;5134692;27;19911;-59
2021/01/13 11:06:39;;;;;;;;;;;;;;;;;;5134273;27;19914;-59
2021/01/13 11:09:05;;;;;;;;;;;;;;;;;;5133753;27;20249;-59
2021/01/13 11:11:31;;;;;;;;;;;;;;;;;;5135439;27;20028;-59
2021/01/13 11:13:57;;;;;;;;;;;;;;;;;;5116104;27;20348;-60
2021/01/13 11:16:23;;;;;;;;;;;;;;;;;;5135244;27;19912;-60
2021/01/13 11:18:49;;;;;;;;;;;;;;;;;;5117121;27;19914;-59
2021/01/13 11:21:15;;;;;;;;;;;;;;;;;;5135526;27;19908;-59
2021/01/13 11:23:41;;;;;;;;;;;;;;;;;;5135214;27;19939;-59
2021/01/13 11:26:07;;;;;;;;;;;;;;;;;;5135415;27;19915;-60
2021/01/13 11:28:33;;;;;;;;;;;;;;;;;;5135229;27;19930;-59
2021/01/13 11:30:59;;;;;;;;;;;;;;;;;;5125040;27;19986;-60
2021/01/13 11:33:25;;;;;;;;;;;;;;;;;;5132826;27;19908;-59
2021/01/13 11:35:53;;;;;;;;;;;;;;;;;;5114384;28;19914;-59
2021/01/13 11:38:19;;;;;;;;;;;;;;;;;;5094567;28;19907;-59
2021/01/13 11:40:45;;;;;;;;;;;;;;;;;;5116711;27;19918;-59
2021/01/13 11:43:11;;;;;;;;;;;;;;;;;;5114582;28;19915;-59
2021/01/13 11:45:37;;;;;;;;;;;;;;;;;;5110572;27;19912;-59
2021/01/13 11:48:03;;;;;;;;;;;;;;;;;;5113959;28;19958;-58
2021/01/13 11:50:29;;;;;;;;;;;;;;;;;;5130592;27;19940;-60
2021/01/13 11:52:55;;;;;;;;;;;;;;;;;;5127007;27;19919;-62
2021/01/13 11:55:21;;;;;;;;;;;;;;;;;;5114976;28;19951;-60
2021/01/13 11:57:47;;;;;;;;;;;;;;;;;;5120315;27;19915;-61
2021/01/13 12:00:13;;;;;;;;;;;;;;;;;;5101318;27;20368;-60
2021/01/13 12:02:39;;;;;;;;;;;;;;;;;;5113517;28;19960;-61
2021/01/13 12:05:05;;;;;;;;;;;;;;;;;;5113751;28;19912;-61
2021/01/13 12:07:31;;;;;;;;;;;;;;;;;;5095806;28;19911;-62
2021/01/13 12:09:57;;;;;;;;;;;;;;;;;;5116155;27;19995;-60
2021/01/13 12:12:23;;;;;;;;;;;;;;;;;;5108540;27;19955;-61
2021/01/13 12:14:49;;;;;;;;;;;;;;;;;;5124772;27;19993;-60
2021/01/13 12:17:15;;;;;;;;;;;;;;;;;;5114659;27;19911;-60
2021/01/13 12:19:41;;;;;;;;;;;;;;;;;;5133333;27;20317;-60
2021/01/13 12:22:07;;;;;;;;;;;;;;;;;;5133029;27;20006;-59
2021/01/13 12:24:33;;;;;;;;;;;;;;;;;;5132586;27;20359;-60
2021/01/13 12:27:02;;;;;;;;;;;;;;;;;;5131535;27;19953;-60
2021/01/13 12:29:28;;;;;;;;;;;;;;;;;;5131937;27;20002;-60
2021/01/13 12:31:54;;;;;;;;;;;;;;;;;;5132884;27;20015;-60
2021/01/13 12:34:21;;;;;;;;;;;;;;;;;;5132814;27;20196;-60
2021/01/13 12:36:47;;;;;;;;;;;;;;;;;;5132014;27;19907;-60
2021/01/13 12:39:13;;;;;;;;;;;;;;;;;;5131992;27;19998;-61
2021/01/13 12:41:39;;;;;;;;;;;;;;;;;;5114306;27;20346;-61
2021/01/13 12:44:06;;;;;;;;;;;;;;;;;;5113661;27;19907;-60
2021/01/13 12:46:32;;;;;;;;;;;;;;;;;;5132539;27;20206;-61
2021/01/13 12:48:58;;;;;;;;;;;;;;;;;;5133716;27;19923;-60
2021/01/13 12:51:24;;;;;;;;;;;;;;;;;;5115672;27;20355;-60
2021/01/13 12:53:50;;;;;;;;;;;;;;;;;;5115594;27;20040;-61
2021/01/13 12:56:15;;;;;;;;;;;;;;;;;;5134156;27;20001;-61
2021/01/13 12:58:41;;;;;;;;;;;;;;;;;;5115547;27;19915;-61
2021/01/13 13:01:07;;;;;;;;;;;;;;;;;;5114863;27;20301;-60
2021/01/13 13:03:33;;;;;;;;;;;;;;;;;;5134158;27;19912;-60
2021/01/13 13:05:59;;;;;;;;;;;;;;;;;;5113070;27;19908;-60
2021/01/13 13:08:25;;;;;;;;;;;;;;;;;;5133523;27;20001;-60
2021/01/13 13:10:51;;;;;;;;;;;;;;;;;;5115568;27;19907;-60
2021/01/13 13:13:21;;;;;;;;;;;;;;;;;;5134129;27;19915;-60
2021/01/13 13:15:47;;;;;;;;;;;;;;;;;;5133933;27;19960;-60
2021/01/13 13:18:13;;;;;;;;;;;;;;;;;;5133857;27;19911;-59
2021/01/13 13:20:39;;;;;;;;;;;;;;;;;;5133986;27;19950;-59
2021/01/13 13:23:05;;;;;;;;;;;;;;;;;;5133467;27;19914;-60
2021/01/13 13:25:31;;;;;;;;;;;;;;;;;;5110585;27;19953;-60
2021/01/13 13:27:57;;;;;;;;;;;;;;;;;;5119503;27;20267;-60
2021/01/13 13:30:23;;;;;;;;;;;;;;;;;;5112617;27;19912;-60
2021/01/13 13:32:49;;;;;;;;;;;;;;;;;;5115337;28;19964;-60
2021/01/13 13:35:15;;;;;;;;;;;;;;;;;;5133864;27;19908;-59
2021/01/13 13:37:41;;;;;;;;;;;;;;;;;;5133207;28;19908;-60
2021/01/13 13:40:08;;;;;;;;;;;;;;;;;;5133574;28;19965;-60
2021/01/13 13:42:34;;;;;;;;;;;;;;;;;;5133168;28;19914;-60
2021/01/13 13:45:00;;;;;;;;;;;;;;;;;;5125666;28;19907;-60
2021/01/13 13:47:26;;;;;;;;;;;;;;;;;;5109391;28;20675;-61
2021/01/13 13:49:52;;;;;;;;;;;;;;;;;;5111548;28;20010;-58
2021/01/13 13:52:18;;;;;;;;;;;;;;;;;;5111886;28;20063;-59
2021/01/13 13:54:43;;;;;;;;;;;;;;;;;;5113087;28;20344;-59
2021/01/13 13:57:09;;;;;;;;;;;;;;;;;;5133201;28;19907;-59
2021/01/13 13:59:35;;;;;;;;;;;;;;;;;;5131693;28;19915;-60
2021/01/13 14:02:01;;;;;;;;;;;;;;;;;;5112803;27;19915;-60
2021/01/13 14:04:27;;;;;;;;;;;;;;;;;;5135622;27;19914;-60
2021/01/13 14:06:53;;;;;;;;;;;;;;;;;;5137148;27;19911;-60
2021/01/13 14:09:19;;;;;;;;;;;;;;;;;;5136261;27;19959;-59
2021/01/13 14:11:45;;;;;;;;;;;;;;;;;;5135048;27;19911;-59
2021/01/13 14:14:11;;;;;;;;;;;;;;;;;;5117478;27;19952;-60
2021/01/13 14:16:37;;;;;;;;;;;;;;;;;;5117651;27;19914;-60
2021/01/13 14:19:03;;;;;;;;;;;;;;;;;;5135905;27;19918;-60
2021/01/13 14:21:29;;;;;;;;;;;;;;;;;;5124619;27;19919;-60
2021/01/13 14:23:55;;;;;;;;;;;;;;;;;;5129844;27;19907;-61
2021/01/13 14:26:22;;;;;;;;;;;;;;;;;;5136682;27;20279;-60
2021/01/13 14:28:48;;;;;;;;;;;;;;;;;;5118055;27;19923;-60
2021/01/13 14:31:14;;;;;;;;;;;;;;;;;;5136792;27;19919;-60
2021/01/13 14:33:39;;;;;;;;;;;;;;;;;;5136502;27;20539;-60
2021/01/13 14:36:05;;;;;;;;;;;;;;;;;;5136893;27;19911;-60
2021/01/13 14:38:31;;;;;;;;;;;;;;;;;;5135205;27;20328;-60
2021/01/13 14:40:57;;;;;;;;;;;;;;;;;;5134365;27;20009;-60
2021/01/13 14:43:23;;;;;;;;;;;;;;;;;;5116695;27;19912;-60
2021/01/13 14:45:49;;;;;;;;;;;;;;;;;;5136233;27;20321;-60
2021/01/13 14:48:15;;;;;;;;;;;;;;;;;;5136524;27;19963;-61
2021/01/13 14:50:42;;;;;;;;;;;;;;;;;;5136426;27;20295;-62
2021/01/13 14:53:08;;;;;;;;;;;;;;;;;;5136107;27;20319;-59
2021/01/13 14:55:34;;;;;;;;;;;;;;;;;;5134071;27;19912;-59
2021/01/13 14:58:00;;;;;;;;;;;;;;;;;;5134500;27;19998;-59
2021/01/13 15:00:26;;;;;;;;;;;;;;;;;;5135496;27;20019;-61
2021/01/13 15:02:52;;;;;;;;;;;;;;;;;;5135443;27;20386;-59
2021/01/13 15:05:18;;;;;;;;;;;;;;;;;;5117139;27;19907;-59
2021/01/13 15:07:44;;;;;;;;;;;;;;;;;;5135029;27;19926;-59
2021/01/13 15:10:10;;;;;;;;;;;;;;;;;;5135985;27;19914;-59
2021/01/13 15:12:36;;;;;;;;;;;;;;;;;;5136182;27;19915;-59
2021/01/13 15:15:02;;;;;;;;;;;;;;;;;;5135691;27;20235;-62
2021/01/13 15:17:28;;;;;;;;;;;;;;;;;;5136463;27;20324;-61
2021/01/13 15:19:54;;;;;;;;;;;;;;;;;;5117640;27;19907;-61
2021/01/13 15:22:20;;;;;;;;;;;;;;;;;;5135597;27;19907;-61
2021/01/13 15:24:46;;;;;;;;;;;;;;;;;;5117607;27;19919;-60
2021/01/13 15:27:17;;;;;;;;;;;;;;;;;;5135957;27;19907;-60
2021/01/13 15:29:43;;;;;;;;;;;;;;;;;;5135621;27;19968;-60
2021/01/13 15:32:09;;;;;;;;;;;;;;;;;;5135905;27;19907;-60
2021/01/13 15:34:35;;;;;;;;;;;;;;;;;;5135832;27;19915;-60
2021/01/13 15:37:01;;;;;;;;;;;;;;;;;;5135620;27;20438;-61
2021/01/13 15:39:27;;;;;;;;;;;;;;;;;;5135902;27;19960;-59
2021/01/13 15:41:53;;;;;;;;;;;;;;;;;;5135799;27;19918;-61
2021/01/13 15:44:19;;;;;;;;;;;;;;;;;;5135276;27;20327;-61
2021/01/13 15:46:45;;;;;;;;;;;;;;;;;;5135628;27;19953;-61
2021/01/13 15:49:11;;;;;;;;;;;;;;;;;;5134964;27;19926;-61
2021/01/13 15:51:37;;;;;;;;;;;;;;;;;;5135557;27;19908;-61
2021/01/13 15:54:03;;;;;;;;;;;;;;;;;;5135486;27;20048;-60
2021/01/13 15:56:29;;;;;;;;;;;;;;;;;;5135039;27;20291;-60
2021/01/13 15:58:55;;;;;;;;;;;;;;;;;;5135390;27;19959;-60
2021/01/13 16:01:21;;;;;;;;;;;;;;;;;;5135621;27;19907;-60
2021/01/13 16:03:47;;;;;;;;;;;;;;;;;;5116557;27;20002;-61
2021/01/13 16:06:14;;;;;;;;;;;;;;;;;;5135229;27;19943;-60
2021/01/13 16:08:40;;;;;;;;;;;;;;;;;;5134706;27;20281;-60
2021/01/13 16:11:06;;;;;;;;;;;;;;;;;;5116192;27;19908;-59
2021/01/13 16:13:32;;;;;;;;;;;;;;;;;;5135194;27;19919;-60
2021/01/13 16:15:58;;;;;;;;;;;;;;;;;;5134986;27;19961;-60
2021/01/13 16:18:24;;;;;;;;;;;;;;;;;;5134760;27;19915;-60
2021/01/13 16:20:50;;;;;;;;;;;;;;;;;;5135072;27;20352;-61
2021/01/13 16:23:16;;;;;;;;;;;;;;;;;;5135210;27;19908;-60
2021/01/13 16:25:42;;;;;;;;;;;;;;;;;;5115350;27;19959;-59
2021/01/13 16:28:08;;;;;;;;;;;;;;;;;;5134725;27;19919;-60
2021/01/13 16:30:34;;;;;;;;;;;;;;;;;;5116279;27;19914;-60
2021/01/13 16:33:03;;;;;;;;;;;;;;;;;;5134341;27;19907;-59
2021/01/13 16:35:29;;;;;;;;;;;;;;;;;;5134280;27;19907;-59
2021/01/13 16:37:55;;;;;;;;;;;;;;;;;;5134645;27;20217;-61